createdAt,value
2017-04-29T00:03:11.391Z,1009.69
2017-04-29T00:08:06.932Z,1009.68
2017-04-29T00:13:02.833Z,1009.64
2017-04-29T00:17:58.233Z,1009.71
2017-04-29T00:22:53.592Z,1009.81
2017-04-29T00:27:52.614Z,1009.63
2017-04-29T00:32:47.573Z,1009.62
2017-04-29T00:37:43.573Z,1009.72
2017-04-29T00:42:38.746Z,1009.74
2017-04-29T00:47:34.505Z,1009.76
2017-04-29T00:52:30.254Z,1009.82
2017-04-29T00:57:26.074Z,1009.84
2017-04-29T01:02:21.834Z,1009.92
2017-04-29T01:07:17.593Z,1010.08
2017-04-29T01:12:14.736Z,1010.07
2017-04-29T01:17:12.195Z,1010.04
2017-04-29T01:22:08.053Z,1010.12
2017-04-29T01:27:03.417Z,1010.05
2017-04-29T01:31:59.016Z,1010.16
2017-04-29T01:36:54.936Z,1010.15
2017-04-29T01:41:50.895Z,1010.16
2017-04-29T01:46:47.155Z,1010.16
2017-04-29T01:51:42.737Z,1010.24
2017-04-29T01:56:38.503Z,1010.21
2017-04-29T02:01:34.163Z,1010.22
2017-04-29T02:06:30.739Z,1010.35
2017-04-29T02:11:26.218Z,1010.35
2017-04-29T02:16:22.038Z,1010.27
2017-04-29T02:21:17.700Z,1010.23
2017-04-29T02:26:13.580Z,1010.30
2017-04-29T02:31:09.039Z,1010.40
2017-04-29T02:36:04.779Z,1010.40
2017-04-29T02:46:01.783Z,1010.41
2017-04-29T02:50:57.620Z,1010.34
2017-04-29T02:55:53.841Z,1010.28
2017-04-29T03:00:50.382Z,1010.35
2017-04-29T03:05:49.065Z,1010.39
2017-04-29T03:10:43.889Z,1010.43
2017-04-29T03:15:39.474Z,1010.45
2017-04-29T03:20:35.876Z,1010.45
2017-04-29T03:25:31.767Z,1010.52
2017-04-29T03:30:27.341Z,1010.53
2017-04-29T03:35:23.331Z,1010.60
2017-04-29T03:40:20.084Z,1010.53
2017-04-29T03:45:16.324Z,1010.68
2017-04-29T03:50:11.802Z,1010.65
2017-04-29T04:00:07.284Z,1010.57
2017-04-29T04:05:03.105Z,1010.65
2017-04-29T04:09:58.824Z,1010.66
2017-04-29T04:14:55.485Z,1010.67
2017-04-29T04:29:59.192Z,1010.63
2017-04-29T04:40:00.278Z,1010.61
2017-04-29T04:50:03.519Z,1010.70
2017-04-29T04:54:58.904Z,1010.73
2017-04-29T04:59:54.940Z,1010.79
2017-04-29T05:04:51.683Z,1010.82
2017-04-29T05:09:47.486Z,1010.90
2017-04-29T05:14:44.428Z,1010.92
2017-04-29T05:19:40.110Z,1010.88
2017-04-29T05:24:35.852Z,1010.99
2017-04-29T05:29:34.920Z,1010.96
2017-04-29T05:34:31.452Z,1011.00
2017-04-29T05:39:27.864Z,1010.96
2017-04-29T05:44:24.822Z,1011.04
2017-04-29T05:49:21.479Z,1011.00
2017-04-29T05:59:17.291Z,1010.99
2017-04-29T06:04:14.313Z,1011.01
2017-04-29T06:09:09.675Z,1010.98
2017-04-29T06:19:07.883Z,1011.12
2017-04-29T06:24:03.437Z,1011.13
2017-04-29T06:29:00.264Z,1011.18
2017-04-29T06:34:01.600Z,1011.10
2017-04-29T06:38:58.022Z,1011.13
2017-04-29T06:43:54.633Z,1011.36
2017-04-29T06:48:52.475Z,1011.32
2017-04-29T07:03:49.598Z,1011.42
2017-04-29T07:08:45.254Z,1011.42
2017-04-29T07:18:48.307Z,1011.41
2017-04-29T07:28:45.945Z,1011.51
2017-04-29T07:38:48.399Z,1011.51
2017-04-29T07:43:45.530Z,1011.50
2017-04-29T07:48:41.438Z,1011.51
2017-04-29T07:53:38.822Z,1011.49
2017-04-29T07:58:34.913Z,1011.53
2017-04-29T08:03:32.181Z,1011.48
2017-04-29T08:08:35.698Z,1011.54
2017-04-29T08:13:34.313Z,1011.46
2017-04-29T08:18:37.930Z,1011.55
2017-04-29T08:23:34.292Z,1011.61
2017-04-29T08:28:32.242Z,1011.58
2017-04-29T08:33:30.540Z,1011.64
2017-04-29T08:43:26.199Z,1011.67
2017-04-29T08:53:23.770Z,1011.86
2017-04-29T09:03:36.334Z,1011.97
2017-04-29T09:08:47.669Z,1012.02
2017-04-29T09:13:40.600Z,1012.05
2017-04-29T09:18:36.320Z,1012.04
2017-04-29T09:23:32.206Z,1012.13
2017-04-29T09:28:28.044Z,1012.06
2017-04-29T09:43:31.543Z,1012.28
2017-04-29T09:48:32.744Z,1012.31
2017-04-29T09:53:30.003Z,1012.24
2017-04-29T09:58:29.201Z,1012.16
2017-04-29T10:03:24.441Z,1011.89
2017-04-29T10:08:18.395Z,1011.84
2017-04-29T10:13:12.676Z,1011.89
2017-04-29T10:18:06.676Z,1011.91
2017-04-29T10:23:01.409Z,1011.92
2017-04-29T10:27:56.585Z,1011.91
2017-04-29T10:32:52.428Z,1012.24
2017-04-29T10:37:50.192Z,1012.00
2017-04-29T10:42:47.012Z,1012.20
2017-04-29T10:47:45.278Z,1011.99
2017-04-29T10:52:43.527Z,1011.83
2017-04-29T10:57:37.816Z,1011.72
2017-04-29T11:02:32.309Z,1011.72
2017-04-29T11:07:27.950Z,1011.73
2017-04-29T11:12:25.657Z,1011.93
2017-04-29T11:17:22.950Z,1011.69
2017-04-29T11:22:16.377Z,1011.75
2017-04-29T11:27:11.048Z,1011.70
2017-04-29T11:32:06.444Z,1011.69
2017-04-29T11:37:06.439Z,1011.72
2017-04-29T11:42:03.312Z,1011.68
2017-04-29T11:47:06.846Z,1011.64
2017-04-29T11:51:58.837Z,1011.64
2017-04-29T11:56:56.936Z,1011.58
2017-04-29T12:01:50.851Z,1011.70
2017-04-29T12:06:51.967Z,1011.65
2017-04-29T12:16:47.885Z,1011.69
2017-04-29T12:21:52.158Z,1011.66
2017-04-29T12:26:44.408Z,1011.64
2017-04-29T12:31:42.020Z,1011.66
2017-04-29T12:36:37.047Z,1011.58
2017-04-29T12:41:33.235Z,1011.67
2017-04-29T12:46:31.056Z,1011.67
2017-04-29T12:51:29.121Z,1011.59
2017-04-29T12:56:23.261Z,1011.66
2017-04-29T13:01:18.379Z,1011.68
2017-04-29T13:06:13.346Z,1011.75
2017-04-29T13:11:08.295Z,1011.67
2017-04-29T13:16:04.098Z,1011.64
2017-04-29T13:20:59.720Z,1011.68
2017-04-29T13:25:55.714Z,1011.70
2017-04-29T13:30:52.180Z,1011.78
2017-04-29T13:35:48.256Z,1011.67
2017-04-29T13:40:44.071Z,1011.70
2017-04-29T13:45:39.809Z,1011.64
2017-04-29T13:50:35.635Z,1011.51
2017-04-29T13:55:31.374Z,1011.60
2017-04-29T14:00:26.891Z,1011.49
2017-04-29T14:05:22.438Z,1011.45
2017-04-29T14:10:18.244Z,1011.49
2017-04-29T14:15:13.950Z,1011.52
2017-04-29T14:20:09.786Z,1011.46
2017-04-29T14:25:07.225Z,1011.51
2017-04-29T14:30:02.543Z,1011.39
2017-04-29T14:34:59.065Z,1011.30
2017-04-29T14:39:53.930Z,1011.31
2017-04-29T14:44:49.694Z,1011.33
2017-04-29T14:49:45.271Z,1011.37
2017-04-29T14:54:41.003Z,1011.32
2017-04-29T14:59:38.021Z,1011.24
2017-04-29T15:04:33.416Z,1011.25
2017-04-29T15:09:29.477Z,1011.26
2017-04-29T15:14:25.259Z,1011.26
2017-04-29T15:19:20.886Z,1011.25
2017-04-29T15:24:16.958Z,1011.18
2017-04-29T15:29:12.637Z,1011.17
2017-04-29T15:34:08.279Z,1011.29
2017-04-29T15:39:04.482Z,1011.20
2017-04-29T15:44:00.479Z,1011.17
2017-04-29T15:48:56.196Z,1011.18
2017-04-29T15:53:52.431Z,1011.12
2017-04-29T15:58:48.764Z,1011.13
2017-04-29T16:03:44.934Z,1011.09
2017-04-29T16:08:43.508Z,1011.16
2017-04-29T16:13:38.600Z,1011.08
2017-04-29T16:18:35.091Z,1011.08
2017-04-29T16:23:31.149Z,1010.95
2017-04-29T16:28:29.728Z,1011.07
2017-04-29T16:33:24.809Z,1010.94
2017-04-29T16:38:21.744Z,1010.97
2017-04-29T16:43:17.429Z,1010.99
2017-04-29T16:53:14.460Z,1010.91
2017-04-29T16:58:10.444Z,1010.94
2017-04-29T17:03:05.999Z,1010.89
2017-04-29T17:08:02.052Z,1010.81
2017-04-29T17:12:57.673Z,1010.88
2017-04-29T17:17:53.433Z,1010.91
2017-04-29T17:22:50.123Z,1010.92
2017-04-29T17:27:46.224Z,1010.94
2017-04-29T17:32:41.649Z,1010.93
2017-04-29T17:37:37.175Z,1010.88
2017-04-29T17:42:32.967Z,1011.04
2017-04-29T17:47:31.511Z,1011.03
2017-04-29T17:52:27.278Z,1011.01
2017-04-29T18:02:31.405Z,1010.98
2017-04-29T18:07:28.365Z,1010.99
2017-04-29T18:12:24.317Z,1011.02
2017-04-29T18:22:19.078Z,1010.87
2017-04-29T18:27:20.026Z,1010.96
2017-04-29T18:32:14.572Z,1010.96
2017-04-29T18:37:10.409Z,1011.01
2017-04-29T18:42:05.607Z,1011.05
2017-04-29T18:47:01.917Z,1011.05
2017-04-29T18:51:59.852Z,1011.08
2017-04-29T18:56:55.055Z,1011.05
2017-04-29T19:01:51.006Z,1011.10
2017-04-29T19:06:47.685Z,1011.09
2017-04-29T19:11:42.991Z,1011.17
2017-04-29T19:16:38.649Z,1011.21
2017-04-29T19:21:34.312Z,1011.22
2017-04-29T19:26:31.649Z,1011.24
2017-04-29T19:31:27.060Z,1011.24
2017-04-29T19:36:22.810Z,1011.24
2017-04-29T19:41:18.351Z,1011.30
2017-04-29T19:46:16.129Z,1011.18
2017-04-29T19:51:11.133Z,1011.18
2017-04-29T19:56:06.791Z,1011.27
2017-04-29T20:01:02.300Z,1011.24
2017-04-29T20:05:58.130Z,1011.21
2017-04-29T20:10:53.411Z,1011.24
2017-04-29T20:15:49.693Z,1011.15
2017-04-29T20:20:45.515Z,1011.17
2017-04-29T20:25:41.223Z,1011.16
2017-04-29T20:30:36.508Z,1011.15
2017-04-29T20:35:32.060Z,1011.12
2017-04-29T20:40:27.823Z,1011.15
2017-04-29T20:45:23.999Z,1011.21
2017-04-29T20:50:19.636Z,1011.17
2017-04-29T20:55:16.109Z,1011.27
2017-04-29T21:00:12.164Z,1011.23
2017-04-29T21:05:07.623Z,1011.24
2017-04-29T21:10:02.865Z,1011.18
2017-04-29T21:14:58.367Z,1011.12
2017-04-29T21:19:54.007Z,1011.15
2017-04-29T21:24:51.069Z,1011.06
2017-04-29T21:29:46.909Z,1011.08
2017-04-29T21:34:42.157Z,1011.06
2017-04-29T21:39:39.312Z,1011.07
2017-04-29T21:44:34.498Z,1011.09
2017-04-29T21:49:30.159Z,1011.14
2017-04-29T21:54:26.410Z,1011.17
2017-04-29T21:59:23.193Z,1011.10
2017-04-29T22:04:19.073Z,1011.17
2017-04-29T22:09:14.883Z,1011.12
2017-04-29T22:14:10.743Z,1011.17
2017-04-29T22:19:06.223Z,1011.14
2017-04-29T22:24:01.865Z,1011.10
2017-04-29T22:28:57.384Z,1011.18
2017-04-29T22:33:52.875Z,1011.09
2017-04-29T22:38:48.428Z,1011.09
2017-04-29T22:43:46.135Z,1011.12
2017-04-29T22:48:41.179Z,1011.05
2017-04-29T22:53:36.793Z,1010.99
2017-04-29T22:58:32.469Z,1011.04
2017-04-29T23:03:28.370Z,1011.05
2017-04-29T23:08:23.593Z,1010.99
2017-04-29T23:13:20.148Z,1010.96
2017-04-29T23:18:15.612Z,1010.90
2017-04-29T23:23:11.549Z,1010.86
2017-04-29T23:28:06.851Z,1010.77
2017-04-29T23:33:02.571Z,1010.75
2017-04-29T23:37:58.211Z,1010.83
2017-04-29T23:42:53.838Z,1010.78
2017-04-29T23:47:49.652Z,1010.75
2017-04-29T23:52:45.315Z,1010.84
2017-04-29T23:57:40.406Z,1010.77
